Bunch, OK (74931)

12:23 PM CDT on August 29, 2014 (GMT -0500)
The Leaf PH | Change Station
CLOSE
Current Station
Personal Weather Station
Location: Park Hill, OK
Elevation: 814 ft
Nearby Weather Stations

Elev 814 ft 35.77 °N, 94.91 °W | Updated 4 minutes ago

Mostly Cloudy
Mostly Cloudy
84.2 °F
Feels Like 95 °F
N
7.8
Wind Variable Wind from SSW

Today
High -- | Low -- °F
--% Chance of Precip.
Yesterday
High -- | Low -- °F
Precip. -- in
6:48 AM 7:50 PM
Waxing Crescent, 15% visible
Pressure 29.93 in
Visibility 10.0 miles
Clouds Clear
Heat Index 95 °F
Dew Point 78 °F
Humidity 82%
Rainfall 0.00 in
Snow Depth Not available.
UV 10 out of 12
Pollen 9.90 out of 12
Air Quality Not available.
Flu Activity Not available.
METAR KJSV 291715Z AUTO 22006KT 10SM CLR 30/17 A2993 RMK AO2 LTG DSNT S

More Conditions Fewer Conditions

Pressure 29.93 in
Visibility 10.0 miles
Clouds Clear
Heat Index 95 °F
Dew Point 78 °F
Humidity 82%
Rainfall 0.00 in
Snow Depth Not available.
UV 10 out of 12
Pollen 9.90 out of 12
Air Quality Not available.
Flu Activity Not available.
METAR KJSV 291715Z AUTO 22006KT 10SM CLR 30/17 A2993 RMK AO2 LTG DSNT S

More Conditions Fewer Conditions

Nowcast | as of 10:36 am CDT on August 29, 2014

At 10:36 am...weather radars indicated isolated showers continuing across northeast Oklahoma...mainly northwest of Interstate 44. Movement was to the north northeast around 20 miles an hour. Through 12:30 PM...isolated to scattered showers...and perhaps an isolated thunderstorm will continue to track across northeast Oklahoma. An increase in areal coverage may occur across far eastern Oklahoma...northwest and west central Arkansas during the early afternoon hours. Brief gusty winds will be possible with the strongest storms. Otherwise...rainfall amounts will mostly remain less than 2 tenths of an inch.

×

10-Day Weather Forecast

Almanac

Astronomy

Aug. 29, 2014 Rise Set
Actual Time 6:48 AM CDT 7:50 PM CDT
Civil Twilight 6:22 AM CDT 8:16 PM CDT
Nautical Twilight 5:51 AM CDT 8:47 PM CDT
Astronomical Twilight 5:19 AM CDT 9:19 PM CDT
Moon 10:30 AM CDT 9:58 PM CDT
Length of Visible Light 13h 54m
Length of Day
13h 01m
Tomorrow will be 2m 8s shorter.
Waxing Crescent, 15% of the Moon is Illuminated
Today
Waxing Crescent
Sep 2
First Quarter
Sep 8
Full
Sep 15
Last Quarter
Sep 24
New

Today's Extremes

State Highs State Lows

Community

WunderPhotos

Upload Photos

1,748,299 photos uploaded!

Nearby

Snow Depth

Station Depth Elevation
No new snow has been reported.

Earthquake Activity

City Distance Mag. Time & Date
No recent earthquake activity has been reported nearby.
Minimum magnitude displayed is 2.5.

Coastal Water Temperatures

Place Temperature
No Stations Reporting

Nearby Weather Stations